sensor_id;sensor_type;location;lat;lon;timestamp;pressure;altitude;pressure_sealevel;temperature;humidity
20228;BME280;12195;55.790;37.572;2023-07-29T00:01:08;98794.56;;;16.59;89.08
20228;BME280;12195;55.790;37.572;2023-07-29T00:03:41;98793.03;;;16.38;88.82
20228;BME280;12195;55.790;37.572;2023-07-29T00:06:25;98782.97;;;16.60;89.04
20228;BME280;12195;55.790;37.572;2023-07-29T00:08:58;98773.50;;;16.39;88.93
20228;BME280;12195;55.790;37.572;2023-07-29T00:11:42;98778.06;;;16.65;89.15
20228;BME280;12195;55.790;37.572;2023-07-29T00:14:15;98774.09;;;16.42;88.94
20228;BME280;12195;55.790;37.572;2023-07-29T00:16:58;98792.70;;;16.69;88.87
20228;BME280;12195;55.790;37.572;2023-07-29T00:19:31;98787.75;;;16.47;88.21
20228;BME280;12195;55.790;37.572;2023-07-29T00:22:15;98791.16;;;16.76;88.13
20228;BME280;12195;55.790;37.572;2023-07-29T00:24:54;98787.75;;;16.47;87.97
20228;BME280;12195;55.790;37.572;2023-07-29T00:27:40;98797.72;;;16.72;87.96
20228;BME280;12195;55.790;37.572;2023-07-29T00:30:25;98792.70;;;16.69;88.17
20228;BME280;12195;55.790;37.572;2023-07-29T00:32:58;98787.75;;;16.47;87.67
20228;BME280;12195;55.790;37.572;2023-07-29T00:35:43;98799.13;;;16.67;88.26
20228;BME280;12195;55.790;37.572;2023-07-29T00:38:16;98788.87;;;16.45;87.67
20228;BME280;12195;55.790;37.572;2023-07-29T00:40:51;98788.30;;;16.41;87.57
20228;BME280;12195;55.790;37.572;2023-07-29T00:43:24;98793.60;;;16.41;87.39
20228;BME280;12195;55.790;37.572;2023-07-29T00:46:08;98791.59;;;16.62;87.75
20228;BME280;12195;55.790;37.572;2023-07-29T00:48:54;98785.48;;;16.62;87.71
20228;BME280;12195;55.790;37.572;2023-07-29T00:51:27;98780.91;;;16.35;87.24
20228;BME280;12195;55.790;37.572;2023-07-29T00:54:09;98787.02;;;16.55;87.58
20228;BME280;12195;55.790;37.572;2023-07-29T00:56:43;98770.45;;;16.34;87.56
20228;BME280;12195;55.790;37.572;2023-07-29T00:59:26;98786.88;;;16.56;87.79
20228;BME280;12195;55.790;37.572;2023-07-29T01:02:01;98770.72;;;16.31;87.16
20228;BME280;12195;55.790;37.572;2023-07-29T01:04:34;98784.95;;;16.30;87.00
20228;BME280;12195;55.790;37.572;2023-07-29T01:07:42;98783.84;;;16.51;87.48
20228;BME280;12195;55.790;37.572;2023-07-29T01:13:41;98777.99;;;16.29;85.90
20228;BME280;12195;55.790;37.572;2023-07-29T01:16:33;98758.73;;;16.27;85.97
20228;BME280;12195;55.790;37.572;2023-07-29T01:19:26;98752.98;;;16.50;86.12
20228;BME280;12195;55.790;37.572;2023-07-29T01:22:07;98745.91;;;16.41;85.96
20228;BME280;12195;55.790;37.572;2023-07-29T01:24:40;98738.55;;;16.07;85.95
20228;BME280;12195;55.790;37.572;2023-07-29T01:27:13;98750.70;;;16.00;86.19
20228;BME280;12195;55.790;37.572;2023-07-29T01:29:57;98754.58;;;16.15;87.18
20228;BME280;12195;55.790;37.572;2023-07-29T01:38:31;98737.16;;;16.12;87.66
20228;BME280;12195;55.790;37.572;2023-07-29T01:41:17;98745.28;;;16.01;88.03
20228;BME280;12195;55.790;37.572;2023-07-29T01:43:52;98738.73;;;15.76;88.33
20228;BME280;12195;55.790;37.572;2023-07-29T01:46:37;98735.50;;;16.02;88.64
20228;BME280;12195;55.790;37.572;2023-07-29T01:49:19;98723.92;;;16.03;88.64
20228;BME280;12195;55.790;37.572;2023-07-29T01:51:52;98722.98;;;15.75;88.46
20228;BME280;12195;55.790;37.572;2023-07-29T01:54:35;98720.87;;;15.98;88.99
20228;BME280;12195;55.790;37.572;2023-07-29T01:57:08;98724.10;;;15.72;88.96
20228;BME280;12195;55.790;37.572;2023-07-29T01:59:52;98724.50;;;15.97;89.07
20228;BME280;12195;55.790;37.572;2023-07-29T02:02:25;98726.20;;;15.69;89.08
20228;BME280;12195;55.790;37.572;2023-07-29T02:05:09;98726.03;;;15.89;89.62
20228;BME280;12195;55.790;37.572;2023-07-29T02:07:42;98713.23;;;15.66;89.34
20228;BME280;12195;55.790;37.572;2023-07-29T02:10:24;98733.16;;;15.89;90.14
20228;BME280;12195;55.790;37.572;2023-07-29T02:12:57;98728.14;;;15.67;90.27
20228;BME280;12195;55.790;37.572;2023-07-29T02:15:40;98740.12;;;15.90;90.73
20228;BME280;12195;55.790;37.572;2023-07-29T02:18:23;98736.48;;;15.91;90.44
20228;BME280;12195;55.790;37.572;2023-07-29T02:20:55;98747.07;;;15.72;90.22
20228;BME280;12195;55.790;37.572;2023-07-29T02:23:28;98755.86;;;15.72;90.02
20228;BME280;12195;55.790;37.572;2023-07-29T02:26:12;98766.02;;;15.96;90.30
20228;BME280;12195;55.790;37.572;2023-07-29T02:28:54;98770.36;;;15.97;90.63
20228;BME280;12195;55.790;37.572;2023-07-29T02:31:27;98776.33;;;15.80;90.27
20228;BME280;12195;55.790;37.572;2023-07-29T02:34:11;98787.07;;;16.07;90.41
20228;BME280;12195;55.790;37.572;2023-07-29T02:36:53;98782.63;;;16.08;90.15
20228;BME280;12195;55.790;37.572;2023-07-29T02:39:38;98781.91;;;16.06;90.36
20228;BME280;12195;55.790;37.572;2023-07-29T02:42:22;98783.44;;;16.08;90.70
20228;BME280;12195;55.790;37.572;2023-07-29T02:44:55;98768.83;;;15.85;90.09
20228;BME280;12195;55.790;37.572;2023-07-29T02:47:40;98768.39;;;16.09;90.22
20228;BME280;12195;55.790;37.572;2023-07-29T02:50:24;98769.21;;;16.09;90.18
20228;BME280;12195;55.790;37.572;2023-07-29T02:52:57;98754.61;;;15.86;89.59
20228;BME280;12195;55.790;37.572;2023-07-29T02:55:41;98752.64;;;16.07;90.12
20228;BME280;12195;55.790;37.572;2023-07-29T02:58:14;98746.94;;;15.83;89.39
20228;BME280;12195;55.790;37.572;2023-07-29T03:01:02;98749.28;;;16.05;90.06
20228;BME280;12195;55.790;37.572;2023-07-29T03:03:45;98743.72;;;15.98;90.47
20228;BME280;12195;55.790;37.572;2023-07-29T03:06:20;98745.69;;;15.77;90.47
20228;BME280;12195;55.790;37.572;2023-07-29T03:09:03;98755.16;;;15.99;91.04
20228;BME280;12195;55.790;37.572;2023-07-29T03:11:36;98756.00;;;15.80;90.45
20228;BME280;12195;55.790;37.572;2023-07-29T03:14:19;98765.17;;;16.05;91.07
20228;BME280;12195;55.790;37.572;2023-07-29T03:16:51;98753.91;;;15.84;90.95
20228;BME280;12195;55.790;37.572;2023-07-29T03:19:34;98758.62;;;16.09;91.53
20228;BME280;12195;55.790;37.572;2023-07-29T03:22:07;98750.44;;;15.93;91.35
20228;BME280;12195;55.790;37.572;2023-07-29T03:24:53;98750.93;;;16.25;90.95
20228;BME280;12195;55.790;37.572;2023-07-29T03:27:36;98738.14;;;16.11;92.27
20228;BME280;12195;55.790;37.572;2023-07-29T03:30:21;98732.11;;;16.28;91.94
20228;BME280;12195;55.790;37.572;2023-07-29T03:32:55;98725.03;;;16.10;91.11
20228;BME280;12195;55.790;37.572;2023-07-29T03:35:28;98725.58;;;16.13;90.66
20228;BME280;12195;55.790;37.572;2023-07-29T03:38:13;98723.16;;;16.39;91.00
20228;BME280;12195;55.790;37.572;2023-07-29T03:40:46;98721.98;;;16.14;90.75
20228;BME280;12195;55.790;37.572;2023-07-29T03:43:31;98719.97;;;16.35;91.02
20228;BME280;12195;55.790;37.572;2023-07-29T03:46:04;98722.25;;;16.11;90.84
20228;BME280;12195;55.790;37.572;2023-07-29T03:48:50;98714.67;;;16.35;91.39
20228;BME280;12195;55.790;37.572;2023-07-29T03:51:23;98703.88;;;15.90;92.02
20228;BME280;12195;55.790;37.572;2023-07-29T03:54:07;98702.97;;;16.28;92.35
20228;BME280;12195;55.790;37.572;2023-07-29T03:56:40;98703.00;;;16.09;92.03
20228;BME280;12195;55.790;37.572;2023-07-29T03:59:24;98702.23;;;16.36;91.18
20228;BME280;12195;55.790;37.572;2023-07-29T04:02:08;98704.89;;;16.36;90.87
20228;BME280;12195;55.790;37.572;2023-07-29T04:04:41;98680.02;;;16.10;91.24
20228;BME280;12195;55.790;37.572;2023-07-29T04:07:28;98687.47;;;16.33;91.04
20228;BME280;12195;55.790;37.572;2023-07-29T04:10:11;98692.63;;;16.35;90.93
20228;BME280;12195;55.790;37.572;2023-07-29T04:12:56;98686.66;;;16.33;90.95
20228;BME280;12195;55.790;37.572;2023-07-29T04:15:28;98689.93;;;16.08;90.74
20228;BME280;12195;55.790;37.572;2023-07-29T04:18:11;98693.75;;;16.32;90.91
20228;BME280;12195;55.790;37.572;2023-07-29T04:20:45;98685.45;;;16.08;90.58
20228;BME280;12195;55.790;37.572;2023-07-29T04:23:30;98697.78;;;16.36;91.04
20228;BME280;12195;55.790;37.572;2023-07-29T04:26:14;98693.47;;;16.35;90.60
20228;BME280;12195;55.790;37.572;2023-07-29T04:28:47;98689.63;;;16.11;91.14
20228;BME280;12195;55.790;37.572;2023-07-29T04:31:31;98696.52;;;16.40;91.81
20228;BME280;12195;55.790;37.572;2023-07-29T04:34:17;98683.83;;;16.44;91.53
20228;BME280;12195;55.790;37.572;2023-07-29T04:36:50;98687.48;;;16.24;91.43
20228;BME280;12195;55.790;37.572;2023-07-29T04:39:33;98687.58;;;16.51;91.21
20228;BME280;12195;55.790;37.572;2023-07-29T04:42:17;98685.46;;;16.54;91.62
20228;BME280;12195;55.790;37.572;2023-07-29T04:44:52;98694.73;;;16.31;90.62
20228;BME280;12195;55.790;37.572;2023-07-29T04:47:38;98687.97;;;16.56;90.55
20228;BME280;12195;55.790;37.572;2023-07-29T04:50:11;98689.72;;;16.28;90.86
20228;BME280;12195;55.790;37.572;2023-07-29T04:52:55;98689.10;;;16.53;91.01
20228;BME280;12195;55.790;37.572;2023-07-29T04:55:43;98690.09;;;16.52;90.83
20228;BME280;12195;55.790;37.572;2023-07-29T04:58:18;98686.93;;;16.30;91.09
20228;BME280;12195;55.790;37.572;2023-07-29T05:01:03;98682.53;;;16.57;91.26
20228;BME280;12195;55.790;37.572;2023-07-29T05:03:36;98675.46;;;16.39;90.85
20228;BME280;12195;55.790;37.572;2023-07-29T05:06:23;98673.87;;;16.65;90.93
20228;BME280;12195;55.790;37.572;2023-07-29T05:09:16;98678.42;;;16.72;89.90
20228;BME280;12195;55.790;37.572;2023-07-29T05:11:49;98673.66;;;16.49;89.43
20228;BME280;12195;55.790;37.572;2023-07-29T05:14:35;98678.81;;;16.77;89.97
20228;BME280;12195;55.790;37.572;2023-07-29T05:17:10;98677.32;;;16.29;89.24
20228;BME280;12195;55.790;37.572;2023-07-29T05:19:43;98666.38;;;16.51;89.07
20228;BME280;12195;55.790;37.572;2023-07-29T05:22:26;98671.09;;;16.84;89.55
20228;BME280;12195;55.790;37.572;2023-07-29T05:24:59;98662.80;;;16.69;88.25
20228;BME280;12195;55.790;37.572;2023-07-29T05:27:43;98661.95;;;16.96;88.66
20228;BME280;12195;55.790;37.572;2023-07-29T05:30:16;98657.31;;;16.80;87.09
20228;BME280;12195;55.790;37.572;2023-07-29T05:33:01;98655.02;;;17.12;87.41
20228;BME280;12195;55.790;37.572;2023-07-29T05:35:35;98648.02;;;16.94;86.95
20228;BME280;12195;55.790;37.572;2023-07-29T05:38:20;98649.18;;;17.26;86.47
20228;BME280;12195;55.790;37.572;2023-07-29T05:40:53;98633.95;;;17.11;86.30
20228;BME280;12195;55.790;37.572;2023-07-29T05:43:39;98643.77;;;17.45;85.97
20228;BME280;12195;55.790;37.572;2023-07-29T05:46:13;98637.42;;;17.29;85.73
20228;BME280;12195;55.790;37.572;2023-07-29T05:49:00;98643.91;;;17.61;85.81
20228;BME280;12195;55.790;37.572;2023-07-29T05:51:45;98646.08;;;17.66;85.55
20228;BME280;12195;55.790;37.572;2023-07-29T05:54:28;98656.61;;;17.75;84.94
20228;BME280;12195;55.790;37.572;2023-07-29T05:57:14;98665.48;;;17.84;85.11
20228;BME280;12195;55.790;37.572;2023-07-29T05:59:47;98665.33;;;17.33;84.77
20228;BME280;12195;55.790;37.572;2023-07-29T06:02:33;98669.33;;;17.89;85.60
20228;BME280;12195;55.790;37.572;2023-07-29T06:05:16;98671.28;;;18.05;84.71
20228;BME280;12195;55.790;37.572;2023-07-29T06:07:50;98670.62;;;17.85;82.40
20228;BME280;12195;55.790;37.572;2023-07-29T06:10:33;98686.49;;;18.20;82.48
20228;BME280;12195;55.790;37.572;2023-07-29T06:13:07;98682.16;;;17.94;80.67
20228;BME280;12195;55.790;37.572;2023-07-29T06:15:49;98693.31;;;18.23;81.40
20228;BME280;12195;55.790;37.572;2023-07-29T06:18:35;98686.85;;;18.25;81.85
20228;BME280;12195;55.790;37.572;2023-07-29T06:21:09;98689.19;;;17.60;81.21
20228;BME280;12195;55.790;37.572;2023-07-29T06:23:57;98700.93;;;18.18;81.95
20228;BME280;12195;55.790;37.572;2023-07-29T06:26:31;98701.98;;;17.82;80.21
20228;BME280;12195;55.790;37.572;2023-07-29T06:29:14;98707.48;;;18.06;80.84
20228;BME280;12195;55.790;37.572;2023-07-29T06:31:58;98718.05;;;17.98;81.15
20228;BME280;12195;55.790;37.572;2023-07-29T06:34:42;98714.81;;;17.86;82.20
20228;BME280;12195;55.790;37.572;2023-07-29T06:37:25;98702.82;;;17.82;81.72
20228;BME280;12195;55.790;37.572;2023-07-29T06:39:58;98701.24;;;17.54;82.93
20228;BME280;12195;55.790;37.572;2023-07-29T06:42:44;98718.83;;;17.90;82.52
20228;BME280;12195;55.790;37.572;2023-07-29T06:45:17;98714.59;;;17.62;83.22
20228;BME280;12195;55.790;37.572;2023-07-29T06:48:03;98724.14;;;17.90;83.37
20228;BME280;12195;55.790;37.572;2023-07-29T06:50:36;98713.89;;;17.60;82.97
20228;BME280;12195;55.790;37.572;2023-07-29T06:53:19;98716.77;;;17.84;83.80
20228;BME280;12195;55.790;37.572;2023-07-29T06:55:53;98720.81;;;17.53;83.93
20228;BME280;12195;55.790;37.572;2023-07-29T06:58:36;98730.97;;;17.75;83.41
20228;BME280;12195;55.790;37.572;2023-07-29T07:01:09;98719.74;;;17.46;84.45
20228;BME280;12195;55.790;37.572;2023-07-29T07:03:54;98724.66;;;17.76;85.21
20228;BME280;12195;55.790;37.572;2023-07-29T07:06:39;98728.16;;;17.77;85.49
20228;BME280;12195;55.790;37.572;2023-07-29T07:09:12;98725.42;;;17.51;85.14
20228;BME280;12195;55.790;37.572;2023-07-29T07:11:57;98734.69;;;17.82;84.71
20228;BME280;12195;55.790;37.572;2023-07-29T07:14:30;98731.20;;;17.47;84.68
20228;BME280;12195;55.790;37.572;2023-07-29T07:17:14;98734.39;;;17.68;84.66
20228;BME280;12195;55.790;37.572;2023-07-29T07:19:48;98730.53;;;17.35;85.12
20228;BME280;12195;55.790;37.572;2023-07-29T07:22:31;98730.74;;;17.69;84.86
20228;BME280;12195;55.790;37.572;2023-07-29T07:25:05;98725.38;;;17.34;83.72
20228;BME280;12195;55.790;37.572;2023-07-29T07:27:51;98731.66;;;17.60;83.99
20228;BME280;12195;55.790;37.572;2023-07-29T07:30:41;98739.55;;;17.52;83.67
20228;BME280;12195;55.790;37.572;2023-07-29T07:33:14;98733.92;;;16.83;86.12
20228;BME280;12195;55.790;37.572;2023-07-29T07:35:57;98729.02;;;17.33;86.38
20228;BME280;12195;55.790;37.572;2023-07-29T07:38:30;98735.27;;;17.14;85.39
20228;BME280;12195;55.790;37.572;2023-07-29T07:41:15;98737.27;;;17.57;84.49
20228;BME280;12195;55.790;37.572;2023-07-29T07:43:49;98736.83;;;17.34;84.76
20228;BME280;12195;55.790;37.572;2023-07-29T07:46:34;98731.04;;;17.66;84.27
20228;BME280;12195;55.790;37.572;2023-07-29T07:49:17;98731.41;;;17.71;84.64
20228;BME280;12195;55.790;37.572;2023-07-29T07:52:04;98725.03;;;17.81;84.52
20228;BME280;12195;55.790;37.572;2023-07-29T07:54:37;98724.08;;;17.38;85.47
20228;BME280;12195;55.790;37.572;2023-07-29T07:57:22;98737.78;;;17.95;84.86
20228;BME280;12195;55.790;37.572;2023-07-29T07:59:56;98727.87;;;17.80;83.93
20228;BME280;12195;55.790;37.572;2023-07-29T08:02:40;98739.28;;;18.15;83.42
20228;BME280;12195;55.790;37.572;2023-07-29T08:05:14;98740.00;;;17.82;82.82
20228;BME280;12195;55.790;37.572;2023-07-29T08:07:59;98747.78;;;18.01;83.50
20228;BME280;12195;55.790;37.572;2023-07-29T08:10:47;98742.25;;;17.95;83.83
20228;BME280;12195;55.790;37.572;2023-07-29T08:13:20;98730.74;;;17.69;83.77
20228;BME280;12195;55.790;37.572;2023-07-29T08:16:03;98738.60;;;17.96;83.68
20228;BME280;12195;55.790;37.572;2023-07-29T08:18:37;98740.16;;;17.81;83.48
20228;BME280;12195;55.790;37.572;2023-07-29T08:21:20;98746.25;;;18.16;82.97
20228;BME280;12195;55.790;37.572;2023-07-29T08:24:03;98745.63;;;18.22;82.84
20228;BME280;12195;55.790;37.572;2023-07-29T08:26:46;98747.67;;;18.28;83.32
20228;BME280;12195;55.790;37.572;2023-07-29T08:29:19;98752.58;;;17.98;83.23
20228;BME280;12195;55.790;37.572;2023-07-29T08:32:02;98745.63;;;18.22;83.89
20228;BME280;12195;55.790;37.572;2023-07-29T08:34:37;98759.34;;;17.92;82.06
20228;BME280;12195;55.790;37.572;2023-07-29T08:37:23;98757.88;;;18.15;84.71
20228;BME280;12195;55.790;37.572;2023-07-29T08:39:57;98755.31;;;17.88;83.50
20228;BME280;12195;55.790;37.572;2023-07-29T08:42:41;98753.23;;;18.17;84.38
20228;BME280;12195;55.790;37.572;2023-07-29T08:45:26;98753.98;;;18.27;83.54
20228;BME280;12195;55.790;37.572;2023-07-29T08:47:59;98749.10;;;17.62;85.29
20228;BME280;12195;55.790;37.572;2023-07-29T08:50:45;98765.13;;;18.31;85.51
20228;BME280;12195;55.790;37.572;2023-07-29T08:53:19;98763.28;;;18.06;81.80
20228;BME280;12195;55.790;37.572;2023-07-29T08:56:04;98753.23;;;18.35;83.32
20228;BME280;12195;55.790;37.572;2023-07-29T08:58:39;98751.20;;;18.11;83.83
20228;BME280;12195;55.790;37.572;2023-07-29T09:01:23;98747.82;;;18.44;83.26
20228;BME280;12195;55.790;37.572;2023-07-29T09:03:56;98756.59;;;18.19;83.26
20228;BME280;12195;55.790;37.572;2023-07-29T09:06:43;98749.03;;;18.50;83.22
20228;BME280;12195;55.790;37.572;2023-07-29T09:09:16;98744.59;;;18.15;81.87
20228;BME280;12195;55.790;37.572;2023-07-29T09:12:02;98742.20;;;18.47;83.32
20228;BME280;12195;55.790;37.572;2023-07-29T09:14:36;98742.97;;;18.22;83.12
20228;BME280;12195;55.790;37.572;2023-07-29T09:17:19;98741.86;;;18.50;82.62
20228;BME280;12195;55.790;37.572;2023-07-29T09:20:09;98744.42;;;18.60;82.27
20228;BME280;12195;55.790;37.572;2023-07-29T09:22:43;98743.45;;;18.35;80.16
20228;BME280;12195;55.790;37.572;2023-07-29T09:25:28;98743.63;;;18.67;80.83
20228;BME280;12195;55.790;37.572;2023-07-29T09:28:02;98754.44;;;18.40;81.11
20228;BME280;12195;55.790;37.572;2023-07-29T09:30:48;98753.30;;;18.68;81.64
20228;BME280;12195;55.790;37.572;2023-07-29T09:33:25;98749.64;;;18.26;79.50
20228;BME280;12195;55.790;37.572;2023-07-29T09:36:10;98759.76;;;18.40;80.91
20228;BME280;12195;55.790;37.572;2023-07-29T09:38:56;98767.13;;;18.29;82.77
20228;BME280;12195;55.790;37.572;2023-07-29T09:41:30;98769.52;;;17.97;82.97
20228;BME280;12195;55.790;37.572;2023-07-29T09:44:17;98769.24;;;18.25;82.67
20228;BME280;12195;55.790;37.572;2023-07-29T09:47:01;98762.62;;;18.29;83.53
20228;BME280;12195;55.790;37.572;2023-07-29T09:49:38;98764.19;;;18.14;81.19
20228;BME280;12195;55.790;37.572;2023-07-29T09:52:23;98765.39;;;18.63;81.83
20228;BME280;12195;55.790;37.572;2023-07-29T09:55:09;98778.30;;;18.83;81.54
20228;BME280;12195;55.790;37.572;2023-07-29T09:57:43;98773.83;;;18.58;80.50
20228;BME280;12195;55.790;37.572;2023-07-29T10:00:31;98766.03;;;18.90;81.20
20228;BME280;12195;55.790;37.572;2023-07-29T10:03:05;98764.98;;;18.50;81.24
20228;BME280;12195;55.790;37.572;2023-07-29T10:05:50;98772.11;;;18.75;81.34
20228;BME280;12195;55.790;37.572;2023-07-29T10:08:24;98773.25;;;18.29;81.04
20228;BME280;12195;55.790;37.572;2023-07-29T10:11:11;98772.62;;;18.53;82.59
20228;BME280;12195;55.790;37.572;2023-07-29T10:13:44;98762.98;;;17.91;84.48
20228;BME280;12195;55.790;37.572;2023-07-29T10:16:31;98760.33;;;18.52;84.33
20228;BME280;12195;55.790;37.572;2023-07-29T10:19:05;98753.89;;;18.37;84.17
20228;BME280;12195;55.790;37.572;2023-07-29T10:21:39;98775.77;;;18.74;83.53
20228;BME280;12195;55.790;37.572;2023-07-29T10:24:32;98776.28;;;18.77;83.52
20228;BME280;12195;55.790;37.572;2023-07-29T10:27:07;98763.13;;;18.50;83.84
20228;BME280;12195;55.790;37.572;2023-07-29T10:29:53;98773.31;;;18.80;83.29
20228;BME280;12195;55.790;37.572;2023-07-29T10:32:30;98763.83;;;18.52;83.08
20228;BME280;12195;55.790;37.572;2023-07-29T10:35:14;98777.98;;;18.86;83.13
20228;BME280;12195;55.790;37.572;2023-07-29T10:37:47;98776.63;;;18.57;81.61
20228;BME280;12195;55.790;37.572;2023-07-29T10:40:53;98778.34;;;18.91;82.12
20228;BME280;12195;55.790;37.572;2023-07-29T10:43:35;98777.77;;;18.11;82.75
20228;BME280;12195;55.790;37.572;2023-07-29T10:46:21;98785.46;;;18.83;81.92
20228;BME280;12195;55.790;37.572;2023-07-29T10:49:04;98788.63;;;18.86;81.40
20228;BME280;12195;55.790;37.572;2023-07-29T10:51:49;98780.29;;;18.81;82.08
20228;BME280;12195;55.790;37.572;2023-07-29T10:54:24;98767.94;;;18.47;82.04
20228;BME280;12195;55.790;37.572;2023-07-29T10:57:14;98780.75;;;18.77;82.30
20228;BME280;12195;55.790;37.572;2023-07-29T10:59:59;98776.28;;;18.77;81.85
20228;BME280;12195;55.790;37.572;2023-07-29T11:02:38;98766.43;;;18.44;82.44
20228;BME280;12195;55.790;37.572;2023-07-29T11:05:23;98771.62;;;18.79;82.33
20228;BME280;12195;55.790;37.572;2023-07-29T11:07:55;98767.09;;;18.46;81.27
20228;BME280;12195;55.790;37.572;2023-07-29T11:10:44;98770.00;;;18.86;81.98
20228;BME280;12195;55.790;37.572;2023-07-29T11:13:18;98770.16;;;18.59;81.72
20228;BME280;12195;55.790;37.572;2023-07-29T11:16:03;98765.27;;;19.06;82.33
20228;BME280;12195;55.790;37.572;2023-07-29T11:18:47;98771.52;;;18.89;82.64
20228;BME280;12195;55.790;37.572;2023-07-29T11:21:23;98764.06;;;18.92;81.01
20228;BME280;12195;55.790;37.572;2023-07-29T11:24:09;98762.16;;;19.52;80.56
20228;BME280;12195;55.790;37.572;2023-07-29T11:26:46;98757.63;;;19.03;78.41
20228;BME280;12195;55.790;37.572;2023-07-29T11:29:29;98761.86;;;19.79;78.41
20228;BME280;12195;55.790;37.572;2023-07-29T11:32:12;98763.54;;;20.04;77.22
20228;BME280;12195;55.790;37.572;2023-07-29T11:34:44;98771.03;;;19.84;75.75
20228;BME280;12195;55.790;37.572;2023-07-29T11:37:29;98769.07;;;20.18;76.44
20228;BME280;12195;55.790;37.572;2023-07-29T11:40:03;98781.53;;;19.94;76.11
20228;BME280;12195;55.790;37.572;2023-07-29T11:42:51;98778.23;;;20.32;75.95
20228;BME280;12195;55.790;37.572;2023-07-29T11:45:24;98771.86;;;19.77;76.58
20228;BME280;12195;55.790;37.572;2023-07-29T11:48:11;98777.39;;;20.39;76.12
20228;BME280;12195;55.790;37.572;2023-07-29T11:50:45;98787.25;;;20.23;73.36
20228;BME280;12195;55.790;37.572;2023-07-29T11:53:29;98786.69;;;20.68;74.21
20228;BME280;12195;55.790;37.572;2023-07-29T11:56:04;98799.89;;;20.37;73.56
20228;BME280;12195;55.790;37.572;2023-07-29T11:58:50;98805.89;;;20.63;73.86
20228;BME280;12195;55.790;37.572;2023-07-29T12:01:23;98784.83;;;19.64;74.21
20228;BME280;12195;55.790;37.572;2023-07-29T12:04:07;98798.75;;;20.23;74.49
20228;BME280;12195;55.790;37.572;2023-07-29T12:06:41;98798.85;;;19.90;73.17
20228;BME280;12195;55.790;37.572;2023-07-29T12:09:26;98809.23;;;20.25;73.66
20228;BME280;12195;55.790;37.572;2023-07-29T12:12:01;98799.19;;;19.95;72.82
20228;BME280;12195;55.790;37.572;2023-07-29T12:14:34;98801.67;;;19.88;72.57
20228;BME280;12195;55.790;37.572;2023-07-29T12:17:18;98809.41;;;20.15;72.99
20228;BME280;12195;55.790;37.572;2023-07-29T12:19:53;98797.84;;;19.91;72.71
20228;BME280;12195;55.790;37.572;2023-07-29T12:22:38;98802.73;;;20.35;73.84
20228;BME280;12195;55.790;37.572;2023-07-29T12:25:23;98800.25;;;20.34;72.53
20228;BME280;12195;55.790;37.572;2023-07-29T12:27:56;98795.23;;;20.15;72.73
20228;BME280;12195;55.790;37.572;2023-07-29T12:30:42;98789.06;;;20.46;72.17
20228;BME280;12195;55.790;37.572;2023-07-29T12:33:34;98786.39;;;20.54;72.25
20228;BME280;12195;55.790;37.572;2023-07-29T12:36:07;98789.59;;;20.34;71.50
20228;BME280;12195;55.790;37.572;2023-07-29T12:38:57;98782.05;;;20.62;71.74
20228;BME280;12195;55.790;37.572;2023-07-29T12:41:40;98791.71;;;20.63;71.62
20228;BME280;12195;55.790;37.572;2023-07-29T12:44:30;98792.25;;;20.26;72.05
20228;BME280;12195;55.790;37.572;2023-07-29T12:47:05;98785.23;;;20.09;71.46
20228;BME280;12195;55.790;37.572;2023-07-29T12:49:52;98782.91;;;20.46;72.16
20228;BME280;12195;55.790;37.572;2023-07-29T12:52:26;98783.58;;;20.24;70.24
20228;BME280;12195;55.790;37.572;2023-07-29T12:55:09;98783.88;;;20.53;71.00
20228;BME280;12195;55.790;37.572;2023-07-29T12:57:43;98783.58;;;20.24;70.29
20228;BME280;12195;55.790;37.572;2023-07-29T13:00:27;98783.23;;;20.59;71.59
20228;BME280;12195;55.790;37.572;2023-07-29T13:03:10;98778.07;;;20.41;71.22
20228;BME280;12195;55.790;37.572;2023-07-29T13:05:55;98786.73;;;20.35;70.64
20228;BME280;12195;55.790;37.572;2023-07-29T13:08:39;98785.39;;;20.31;70.60
20228;BME280;12195;55.790;37.572;2023-07-29T13:11:19;98778.55;;;19.97;70.54
20228;BME280;12195;55.790;37.572;2023-07-29T13:13:49;98777.38;;;19.91;68.28
20228;BME280;12195;55.790;37.572;2023-07-29T13:16:33;98779.41;;;20.13;70.14
20228;BME280;12195;55.790;37.572;2023-07-29T13:19:18;98783.04;;;20.04;69.98
20228;BME280;12195;55.790;37.572;2023-07-29T13:21:51;98781.49;;;19.70;69.00
20228;BME280;12195;55.790;37.572;2023-07-29T13:24:42;98781.53;;;19.94;69.09
20228;BME280;12195;55.790;37.572;2023-07-29T13:27:16;98777.81;;;19.63;67.61
20228;BME280;12195;55.790;37.572;2023-07-29T13:30:06;98775.03;;;19.88;68.52
20228;BME280;12195;55.790;37.572;2023-07-29T13:32:41;98769.80;;;19.55;67.75
20228;BME280;12195;55.790;37.572;2023-07-29T13:35:23;98781.19;;;19.81;68.14
20228;BME280;12195;55.790;37.572;2023-07-29T13:37:57;98770.64;;;19.55;67.80
20228;BME280;12195;55.790;37.572;2023-07-29T13:40:39;98781.52;;;19.86;66.85
20228;BME280;12195;55.790;37.572;2023-07-29T13:43:13;98769.32;;;19.59;65.29
20228;BME280;12195;55.790;37.572;2023-07-29T13:45:56;98779.88;;;19.93;67.01
20228;BME280;12195;55.790;37.572;2023-07-29T13:48:29;98767.01;;;19.72;65.68
20228;BME280;12195;55.790;37.572;2023-07-29T13:51:14;98768.26;;;20.10;66.71
20228;BME280;12195;55.790;37.572;2023-07-29T13:53:47;98756.38;;;19.96;66.79
20228;BME280;12195;55.790;37.572;2023-07-29T13:56:30;98751.24;;;20.35;66.92
20228;BME280;12195;55.790;37.572;2023-07-29T13:59:03;98738.08;;;20.25;65.34
20228;BME280;12195;55.790;37.572;2023-07-29T14:01:48;98757.03;;;20.63;65.64
20228;BME280;12195;55.790;37.572;2023-07-29T14:04:35;98748.00;;;20.72;64.64
20228;BME280;12195;55.790;37.572;2023-07-29T14:07:08;98745.36;;;20.55;63.82